createdAt,value
2019-03-24T00:01:22.345Z,42.93
2019-03-24T00:03:49.738Z,45.17
2019-03-24T00:06:17.166Z,44.17
2019-03-24T00:08:44.539Z,42.50
2019-03-24T00:11:11.963Z,45.00
2019-03-24T00:13:39.346Z,42.63
2019-03-24T00:16:06.772Z,45.80
2019-03-24T00:18:34.155Z,43.00
2019-03-24T00:21:01.573Z,43.50
2019-03-24T00:23:28.962Z,44.60
2019-03-24T00:25:56.385Z,44.60
2019-03-24T00:28:23.770Z,47.17
2019-03-24T00:30:51.268Z,46.60
2019-03-24T00:33:18.726Z,45.50
2019-03-24T00:35:46.165Z,44.30
2019-03-24T00:38:13.591Z,45.37
2019-03-24T00:40:41.007Z,48.13
2019-03-24T00:43:08.461Z,45.70
2019-03-24T00:45:37.150Z,48.20
2019-03-24T00:48:04.767Z,47.07
2019-03-24T00:50:32.154Z,48.00
2019-03-24T00:52:59.570Z,43.37
2019-03-24T00:55:26.970Z,45.53
2019-03-24T00:57:54.388Z,46.20
2019-03-24T01:00:26.002Z,46.80
2019-03-24T01:02:53.418Z,48.03
2019-03-24T01:05:20.804Z,46.97
2019-03-24T01:07:48.298Z,46.50
2019-03-24T01:10:15.758Z,46.30
2019-03-24T01:12:43.184Z,48.23
2019-03-24T01:15:10.723Z,45.37
2019-03-24T01:17:38.131Z,43.50
2019-03-24T01:20:06.302Z,48.37
2019-03-24T01:22:33.731Z,45.63
2019-03-24T01:25:01.114Z,47.73
2019-03-24T01:27:28.537Z,48.17
2019-03-24T01:29:55.924Z,52.73
2019-03-24T01:32:23.412Z,47.37
2019-03-24T01:34:51.226Z,50.00
2019-03-24T01:37:18.714Z,48.87
2019-03-24T01:39:46.102Z,45.63
2019-03-24T01:42:13.525Z,45.27
2019-03-24T01:44:40.925Z,45.50
2019-03-24T01:47:08.338Z,45.87
2019-03-24T01:49:35.730Z,46.20
2019-03-24T01:52:03.144Z,48.73
2019-03-24T01:54:30.534Z,44.70
2019-03-24T01:56:57.967Z,43.68
2019-03-24T01:59:25.361Z,44.87
2019-03-24T02:01:52.798Z,44.43
2019-03-24T02:04:20.176Z,44.47
2019-03-24T02:06:47.581Z,45.80
2019-03-24T02:09:15.060Z,43.53
2019-03-24T02:11:42.394Z,45.87
2019-03-24T02:14:09.824Z,48.27
2019-03-24T02:16:37.221Z,45.20
2019-03-24T02:19:04.702Z,44.87
2019-03-24T02:21:32.158Z,46.60
2019-03-24T02:23:59.581Z,44.17
2019-03-24T02:26:27.859Z,43.08
2019-03-24T02:28:55.290Z,45.50
2019-03-24T02:31:22.683Z,48.42
2019-03-24T02:33:50.114Z,46.97
2019-03-24T02:36:17.500Z,44.47
2019-03-24T02:38:44.914Z,45.33
2019-03-24T02:41:12.310Z,45.20
2019-03-24T02:43:39.725Z,45.00
2019-03-24T02:46:07.123Z,45.08
2019-03-24T02:48:34.538Z,45.00
2019-03-24T02:51:01.935Z,45.00
2019-03-24T02:53:29.375Z,46.30
2019-03-24T02:55:56.846Z,44.03
2019-03-24T02:58:24.260Z,44.23
2019-03-24T03:00:51.724Z,45.67
2019-03-24T03:03:19.142Z,44.13
2019-03-24T03:05:46.532Z,44.40
2019-03-24T03:08:13.953Z,41.60
2019-03-24T03:10:41.411Z,43.50
2019-03-24T03:13:08.841Z,43.47
2019-03-24T03:15:36.238Z,45.33
2019-03-24T03:18:03.731Z,45.63
2019-03-24T03:20:31.112Z,47.77
2019-03-24T03:22:58.527Z,47.37
2019-03-24T03:25:25.930Z,46.63
2019-03-24T03:27:53.315Z,47.93
2019-03-24T03:30:20.729Z,42.23
2019-03-24T03:32:48.186Z,46.40
2019-03-24T03:35:15.710Z,45.87
2019-03-24T03:37:43.075Z,43.73
2019-03-24T03:40:10.666Z,46.00
2019-03-24T03:42:38.926Z,43.27
2019-03-24T03:45:07.221Z,43.50
2019-03-24T03:47:34.611Z,45.10
2019-03-24T03:50:02.074Z,50.67
2019-03-24T03:52:29.521Z,42.00
2019-03-24T03:54:56.948Z,44.90
2019-03-24T03:57:24.347Z,43.70
2019-03-24T03:59:51.772Z,46.20
2019-03-24T04:02:19.167Z,45.23
2019-03-24T04:04:46.584Z,46.43
2019-03-24T04:07:13.978Z,49.60
2019-03-24T04:09:41.406Z,42.47
2019-03-24T04:12:08.805Z,44.70
2019-03-24T04:14:36.220Z,47.70
2019-03-24T04:17:07.512Z,42.60
2019-03-24T04:19:32.681Z,44.63
2019-03-24T04:22:00.073Z,45.63
2019-03-24T04:24:27.497Z,44.33
2019-03-24T04:26:54.884Z,46.10
2019-03-24T04:29:22.296Z,48.17
2019-03-24T04:31:49.698Z,45.80
2019-03-24T04:34:17.115Z,42.83
2019-03-24T04:36:44.513Z,44.50
2019-03-24T04:39:11.940Z,43.53
2019-03-24T04:41:39.335Z,46.83
2019-03-24T04:44:06.754Z,47.67
2019-03-24T04:46:34.145Z,49.23
2019-03-24T04:49:01.571Z,48.27
2019-03-24T04:51:28.964Z,48.13
2019-03-24T04:53:56.357Z,47.00
2019-03-24T04:56:23.784Z,44.20
2019-03-24T04:58:51.175Z,48.80
2019-03-24T05:01:18.594Z,49.23
2019-03-24T05:03:46.053Z,46.50
2019-03-24T05:06:13.541Z,50.30
2019-03-24T05:08:41.307Z,50.00
2019-03-24T05:11:08.729Z,51.33
2019-03-24T05:13:36.122Z,49.67
2019-03-24T05:16:03.614Z,44.88
2019-03-24T05:18:31.013Z,44.43
2019-03-24T05:20:58.438Z,44.50
2019-03-24T05:23:25.825Z,43.43
2019-03-24T05:25:53.257Z,46.77
2019-03-24T05:28:20.645Z,46.90
2019-03-24T05:30:48.068Z,45.40
2019-03-24T05:33:15.452Z,46.40
2019-03-24T05:35:42.874Z,47.07
2019-03-24T05:38:10.335Z,46.07
2019-03-24T05:40:37.750Z,46.60
2019-03-24T05:43:05.221Z,45.80
2019-03-24T05:45:32.642Z,42.90
2019-03-24T05:48:00.027Z,46.63
2019-03-24T05:50:27.457Z,47.47
2019-03-24T05:52:54.842Z,44.33
2019-03-24T05:55:22.273Z,48.97
2019-03-24T05:57:49.667Z,47.03
2019-03-24T06:00:17.081Z,46.33
2019-03-24T06:02:44.469Z,45.20
2019-03-24T06:05:11.962Z,46.23
2019-03-24T06:07:39.357Z,45.73
2019-03-24T06:10:06.935Z,43.70
2019-03-24T06:12:34.321Z,45.00
2019-03-24T06:15:01.722Z,45.07
2019-03-24T06:17:29.135Z,44.27
2019-03-24T06:19:56.523Z,46.80
2019-03-24T06:22:23.951Z,43.77
2019-03-24T06:24:51.334Z,40.57
2019-03-24T06:27:18.754Z,43.90
2019-03-24T06:29:46.175Z,41.53
2019-03-24T06:32:13.565Z,43.80
2019-03-24T06:34:40.961Z,42.23
2019-03-24T06:37:08.382Z,40.80
2019-03-24T06:39:35.762Z,42.27
2019-03-24T06:42:03.255Z,43.67
2019-03-24T06:44:30.659Z,50.63
2019-03-24T06:46:58.071Z,43.87
2019-03-24T06:49:25.489Z,43.20
2019-03-24T06:51:52.887Z,43.00
2019-03-24T06:54:20.278Z,42.83
2019-03-24T06:56:47.705Z,41.83
2019-03-24T06:59:15.129Z,43.53
2019-03-24T07:01:42.524Z,40.30
2019-03-24T07:04:09.904Z,42.07
2019-03-24T07:06:37.397Z,40.57
2019-03-24T07:09:05.559Z,40.93
2019-03-24T07:11:32.968Z,42.50
2019-03-24T07:14:00.353Z,42.70
2019-03-24T07:16:27.772Z,42.47
2019-03-24T07:18:55.156Z,39.67
2019-03-24T07:21:22.574Z,40.50
2019-03-24T07:23:49.964Z,40.17
2019-03-24T07:26:17.380Z,41.30
2019-03-24T07:28:44.760Z,41.53
2019-03-24T07:31:12.223Z,44.60
2019-03-24T07:33:39.720Z,40.20
2019-03-24T07:36:07.124Z,42.23
2019-03-24T07:38:34.510Z,43.67
2019-03-24T07:41:01.923Z,41.40
2019-03-24T07:43:29.304Z,37.93
2019-03-24T07:45:56.702Z,39.93
2019-03-24T07:48:24.126Z,41.03
2019-03-24T07:50:51.580Z,41.50
2019-03-24T07:53:18.993Z,62.13
2019-03-24T07:55:46.385Z,40.30
2019-03-24T07:58:13.801Z,41.23
2019-03-24T08:00:41.193Z,40.40
2019-03-24T08:03:08.615Z,39.90
2019-03-24T08:05:36.008Z,42.73
2019-03-24T08:08:03.598Z,37.73
2019-03-24T08:10:30.989Z,40.80
2019-03-24T08:12:58.511Z,41.47
2019-03-24T08:15:25.890Z,39.90
2019-03-24T08:17:53.315Z,38.83
2019-03-24T08:20:20.703Z,40.40
2019-03-24T08:22:48.138Z,37.37
2019-03-24T08:25:15.516Z,37.97
2019-03-24T08:27:42.937Z,41.50
2019-03-24T08:30:10.585Z,40.47
2019-03-24T08:32:38.075Z,40.90
2019-03-24T08:35:05.935Z,40.80
2019-03-24T08:37:33.345Z,42.37
2019-03-24T08:40:00.867Z,41.67
2019-03-24T08:42:28.275Z,39.23
2019-03-24T08:44:55.741Z,39.17
2019-03-24T08:47:23.163Z,39.27
2019-03-24T08:49:50.550Z,41.47
2019-03-24T08:52:17.965Z,40.83
2019-03-24T08:54:45.355Z,40.20
2019-03-24T08:57:12.778Z,43.17
2019-03-24T08:59:40.238Z,41.13
2019-03-24T09:02:07.653Z,43.97
2019-03-24T09:04:35.040Z,42.20
2019-03-24T09:07:02.432Z,42.67
2019-03-24T09:09:29.840Z,41.40
2019-03-24T09:11:57.588Z,41.00
2019-03-24T09:14:25.305Z,40.70
2019-03-24T09:16:53.050Z,43.90
2019-03-24T09:19:20.789Z,43.07
2019-03-24T09:21:48.436Z,41.67
2019-03-24T09:24:16.015Z,42.63
2019-03-24T09:26:43.623Z,40.97
2019-03-24T09:29:11.275Z,41.97
2019-03-24T09:31:39.005Z,43.03
2019-03-24T09:34:06.728Z,44.57
2019-03-24T09:36:34.454Z,44.13
2019-03-24T09:39:01.830Z,38.20
2019-03-24T09:41:29.210Z,42.47
2019-03-24T09:43:56.624Z,44.07
2019-03-24T09:46:24.014Z,45.40
2019-03-24T09:48:51.430Z,45.03
2019-03-24T09:51:21.105Z,43.60
2019-03-24T09:53:47.880Z,38.97
2019-03-24T09:56:15.273Z,42.00
2019-03-24T09:58:42.696Z,43.10
2019-03-24T10:01:10.094Z,43.97
2019-03-24T10:03:37.522Z,44.13
2019-03-24T10:06:04.910Z,42.63
2019-03-24T10:08:32.323Z,45.27
2019-03-24T10:10:59.713Z,43.20
2019-03-24T10:13:27.136Z,41.77
2019-03-24T10:15:54.529Z,44.80
2019-03-24T10:18:21.956Z,39.47
2019-03-24T10:20:49.414Z,42.50
2019-03-24T10:23:16.829Z,43.00
2019-03-24T10:25:44.226Z,44.90
2019-03-24T10:28:11.614Z,39.43
2019-03-24T10:30:39.034Z,44.80
2019-03-24T10:33:06.417Z,44.10
2019-03-24T10:35:33.837Z,41.80
2019-03-24T10:38:01.223Z,36.60
2019-03-24T10:40:29.219Z,46.30
2019-03-24T10:42:56.626Z,44.67
2019-03-24T10:45:24.044Z,39.80
2019-03-24T10:47:51.428Z,44.20
2019-03-24T10:50:18.852Z,43.93
2019-03-24T10:52:46.233Z,43.10
2019-03-24T10:55:13.821Z,44.20
2019-03-24T10:57:41.216Z,40.07
2019-03-24T11:00:12.956Z,43.90
2019-03-24T11:02:40.343Z,45.17
2019-03-24T11:05:08.041Z,47.10
2019-03-24T11:07:35.425Z,41.70
2019-03-24T11:10:03.113Z,45.33
2019-03-24T11:12:30.549Z,49.43
2019-03-24T11:14:59.165Z,42.40
2019-03-24T11:17:26.482Z,43.23
2019-03-24T11:19:53.898Z,43.30
2019-03-24T11:22:21.286Z,43.80
2019-03-24T11:24:48.701Z,44.57
2019-03-24T11:27:16.089Z,42.00
2019-03-24T11:29:43.505Z,42.30
2019-03-24T11:32:10.913Z,40.40
2019-03-24T11:34:38.360Z,44.40
2019-03-24T11:37:05.759Z,42.63
2019-03-24T11:39:33.177Z,44.47
2019-03-24T11:42:00.584Z,43.13
2019-03-24T11:44:27.994Z,43.80
2019-03-24T11:46:55.377Z,40.30
2019-03-24T11:49:22.788Z,34.93
2019-03-24T11:51:50.261Z,46.50
2019-03-24T11:54:17.677Z,37.70
2019-03-24T11:56:45.141Z,40.30
2019-03-24T11:59:12.534Z,44.97
2019-03-24T12:01:39.966Z,44.20
2019-03-24T12:04:07.363Z,46.90
2019-03-24T12:06:34.779Z,40.00
2019-03-24T12:09:02.171Z,45.87
2019-03-24T12:11:29.608Z,44.03
2019-03-24T12:13:57.018Z,46.87
2019-03-24T12:16:24.476Z,43.73
2019-03-24T12:18:51.874Z,42.50
2019-03-24T12:21:19.327Z,39.07
2019-03-24T12:23:46.708Z,47.23
2019-03-24T12:26:14.134Z,47.43
2019-03-24T12:28:41.528Z,42.47
2019-03-24T12:31:08.952Z,42.00
2019-03-24T12:33:36.408Z,43.90
2019-03-24T12:36:03.905Z,44.10
2019-03-24T12:38:31.305Z,48.80
2019-03-24T12:40:58.718Z,47.43
2019-03-24T12:43:26.113Z,53.27
2019-03-24T12:45:53.527Z,45.33
2019-03-24T12:48:21.016Z,48.40
2019-03-24T12:50:48.533Z,51.90
2019-03-24T12:53:15.933Z,47.43
2019-03-24T12:55:43.350Z,46.03
2019-03-24T12:58:10.747Z,48.93
2019-03-24T13:00:38.687Z,52.07
2019-03-24T13:03:06.265Z,50.03
2019-03-24T13:05:33.685Z,47.10
2019-03-24T13:08:08.407Z,44.00
2019-03-24T13:10:35.820Z,45.07
2019-03-24T13:13:03.207Z,44.50
2019-03-24T13:15:30.907Z,48.47
2019-03-24T13:17:58.297Z,50.13
2019-03-24T13:20:37.877Z,44.80
2019-03-24T13:22:54.991Z,50.70
2019-03-24T13:25:22.363Z,45.13
2019-03-24T13:27:49.785Z,42.57
2019-03-24T13:30:17.246Z,46.70
2019-03-24T13:32:44.661Z,45.90
2019-03-24T13:35:12.048Z,45.93
2019-03-24T13:37:39.489Z,48.17
2019-03-24T13:40:06.884Z,46.53
2019-03-24T13:42:34.286Z,40.73
2019-03-24T13:45:01.673Z,43.60
2019-03-24T13:47:29.087Z,48.10
2019-03-24T13:49:56.474Z,47.17
2019-03-24T13:52:23.953Z,42.33
2019-03-24T13:54:51.417Z,42.80
2019-03-24T13:57:18.905Z,46.03
2019-03-24T13:59:46.287Z,47.57
2019-03-24T14:02:13.717Z,44.90
2019-03-24T14:04:41.108Z,40.80
2019-03-24T14:07:08.529Z,49.30
2019-03-24T14:09:35.920Z,50.50
2019-03-24T14:12:03.330Z,48.00
2019-03-24T14:14:30.722Z,50.90
2019-03-24T14:16:58.129Z,49.83
2019-03-24T14:19:25.539Z,43.20
2019-03-24T14:21:52.948Z,50.30
2019-03-24T14:24:20.330Z,43.90
2019-03-24T14:26:47.712Z,52.97
2019-03-24T14:29:15.126Z,50.80
2019-03-24T14:31:42.523Z,47.87
2019-03-24T14:34:09.937Z,40.10
2019-03-24T14:36:37.330Z,46.83
2019-03-24T14:39:05.318Z,45.50
2019-03-24T14:41:32.702Z,48.80
2019-03-24T14:44:00.123Z,48.20
2019-03-24T14:46:27.507Z,45.90
2019-03-24T14:48:54.924Z,49.73
2019-03-24T14:51:22.327Z,42.33
2019-03-24T14:53:49.749Z,45.83
2019-03-24T14:56:17.129Z,41.37
2019-03-24T14:58:44.545Z,46.77
2019-03-24T15:01:11.942Z,47.10
2019-03-24T15:03:39.356Z,38.80
2019-03-24T15:06:06.746Z,46.90
2019-03-24T15:08:34.170Z,44.37
2019-03-24T15:11:01.561Z,42.73
2019-03-24T15:13:28.975Z,40.50
2019-03-24T15:15:56.364Z,39.07
2019-03-24T15:18:23.786Z,39.80
2019-03-24T15:20:51.237Z,37.20
2019-03-24T15:23:18.652Z,36.83
2019-03-24T15:25:46.040Z,42.00
2019-03-24T15:28:13.460Z,40.30
2019-03-24T15:30:40.850Z,41.17
2019-03-24T15:33:08.273Z,42.37
2019-03-24T15:35:35.651Z,45.90
2019-03-24T15:38:08.403Z,46.87
2019-03-24T15:40:32.086Z,42.70
2019-03-24T15:42:59.505Z,41.10
2019-03-24T15:45:26.901Z,37.80
2019-03-24T15:47:54.322Z,40.30
2019-03-24T15:50:21.706Z,37.67
2019-03-24T15:52:49.118Z,39.27
2019-03-24T15:55:16.518Z,37.97
2019-03-24T15:57:43.938Z,39.50
2019-03-24T16:00:12.466Z,38.33
2019-03-24T16:02:39.877Z,40.83
2019-03-24T16:05:07.441Z,34.43
2019-03-24T16:07:34.828Z,42.67
2019-03-24T16:10:02.327Z,36.60
2019-03-24T16:12:29.715Z,42.83
2019-03-24T16:14:57.125Z,37.37
2019-03-24T16:17:24.524Z,38.40
2019-03-24T16:19:51.936Z,41.80
2019-03-24T16:22:19.316Z,40.23
2019-03-24T16:24:46.731Z,42.50
2019-03-24T16:27:14.123Z,43.83
2019-03-24T16:29:41.528Z,42.57
2019-03-24T16:32:08.914Z,40.27
2019-03-24T16:34:36.335Z,42.50
2019-03-24T16:37:03.777Z,38.47
2019-03-24T16:39:31.188Z,38.57
2019-03-24T16:41:58.575Z,37.13
2019-03-24T16:44:25.999Z,41.90
2019-03-24T16:46:53.388Z,37.10
2019-03-24T16:49:20.835Z,39.03
2019-03-24T16:51:48.224Z,38.33
2019-03-24T16:54:15.633Z,41.67
2019-03-24T16:56:43.026Z,36.70
2019-03-24T16:59:10.449Z,37.57
2019-03-24T17:01:37.825Z,37.40
2019-03-24T17:04:05.247Z,35.80
2019-03-24T17:06:32.632Z,41.80
2019-03-24T17:09:00.046Z,38.60
2019-03-24T17:11:27.440Z,39.73
2019-03-24T17:13:54.848Z,45.53
2019-03-24T17:16:22.231Z,40.40
2019-03-24T17:18:49.653Z,47.30
2019-03-24T17:21:17.043Z,41.00
2019-03-24T17:23:44.458Z,40.07
2019-03-24T17:26:11.857Z,38.87
2019-03-24T17:28:39.234Z,37.73
2019-03-24T17:31:06.869Z,40.25
2019-03-24T17:33:34.251Z,37.17
2019-03-24T17:36:01.736Z,37.53
2019-03-24T17:38:29.128Z,36.20
2019-03-24T17:40:56.536Z,35.10
2019-03-24T17:43:23.925Z,36.70
2019-03-24T17:45:51.347Z,35.40
2019-03-24T17:48:18.735Z,34.87
2019-03-24T17:50:46.267Z,35.70
2019-03-24T17:53:13.598Z,38.90
2019-03-24T17:55:41.014Z,33.80
2019-03-24T17:58:08.469Z,33.60
2019-03-24T18:00:36.757Z,34.83
2019-03-24T18:03:04.213Z,33.20
2019-03-24T18:05:31.634Z,32.67
2019-03-24T18:07:59.020Z,35.53
2019-03-24T18:10:26.442Z,33.00
2019-03-24T18:12:53.830Z,33.20
2019-03-24T18:15:21.251Z,33.20
2019-03-24T18:17:48.640Z,35.47
2019-03-24T18:20:17.607Z,37.93
2019-03-24T18:22:44.984Z,33.07
2019-03-24T18:25:12.479Z,31.63
2019-03-24T18:27:39.859Z,34.13
2019-03-24T18:30:08.648Z,39.27
2019-03-24T18:32:35.999Z,38.20
2019-03-24T18:35:04.560Z,35.43
2019-03-24T18:37:31.897Z,36.57
2019-03-24T18:39:59.361Z,33.10
2019-03-24T18:42:27.672Z,32.65
2019-03-24T18:44:55.703Z,34.53
2019-03-24T18:47:23.043Z,30.83
2019-03-24T18:49:50.457Z,44.40
2019-03-24T18:52:22.582Z,42.80
2019-03-24T18:54:46.910Z,36.30
2019-03-24T18:57:14.325Z,35.60
2019-03-24T18:59:41.707Z,34.43
2019-03-24T19:02:09.118Z,33.90
2019-03-24T19:04:36.504Z,31.67
2019-03-24T19:07:03.933Z,34.07
2019-03-24T19:09:31.334Z,34.37
2019-03-24T19:11:58.748Z,33.87
2019-03-24T19:14:26.147Z,34.00
2019-03-24T19:16:53.556Z,34.77
2019-03-24T19:19:20.954Z,33.10
2019-03-24T19:21:48.360Z,33.73
2019-03-24T19:24:15.748Z,33.93
2019-03-24T19:26:43.162Z,33.53
2019-03-24T19:29:10.545Z,33.27
2019-03-24T19:31:37.957Z,31.70
2019-03-24T19:34:05.417Z,32.50
2019-03-24T19:36:32.834Z,30.93
2019-03-24T19:39:00.223Z,30.10
2019-03-24T19:41:27.637Z,31.60
2019-03-24T19:43:55.026Z,31.03
2019-03-24T19:46:22.453Z,32.70
2019-03-24T19:48:49.827Z,31.77
2019-03-24T19:51:17.255Z,31.43
2019-03-24T19:53:44.634Z,32.63
2019-03-24T19:56:12.128Z,29.70
2019-03-24T19:58:39.516Z,29.37
2019-03-24T20:01:06.940Z,30.27
2019-03-24T20:03:34.333Z,31.27
2019-03-24T20:06:01.742Z,32.97
2019-03-24T20:08:29.142Z,29.87
2019-03-24T20:10:56.569Z,30.27
2019-03-24T20:13:23.959Z,33.37
2019-03-24T20:15:51.345Z,33.80
2019-03-24T20:18:18.756Z,33.80
2019-03-24T20:20:46.152Z,36.37
2019-03-24T20:23:13.578Z,33.17
2019-03-24T20:25:40.970Z,33.90
2019-03-24T20:28:08.389Z,35.70
2019-03-24T20:30:35.782Z,32.33
2019-03-24T20:33:03.209Z,30.77
2019-03-24T20:35:30.594Z,28.20
2019-03-24T20:37:58.011Z,27.80
2019-03-24T20:40:25.398Z,29.20
2019-03-24T20:42:52.818Z,30.20
2019-03-24T20:45:20.205Z,27.10
2019-03-24T20:47:47.622Z,26.77
2019-03-24T20:50:15.010Z,28.93
2019-03-24T20:52:42.432Z,28.10
2019-03-24T20:55:10.090Z,27.17
2019-03-24T20:57:37.506Z,27.90
2019-03-24T21:00:06.648Z,26.97
2019-03-24T21:02:34.058Z,25.07
2019-03-24T21:05:01.487Z,23.40
2019-03-24T21:07:28.858Z,22.77
2019-03-24T21:09:56.250Z,23.60
2019-03-24T21:12:23.724Z,23.47
2019-03-24T21:14:51.113Z,22.90
2019-03-24T21:17:18.531Z,20.60
2019-03-24T21:19:45.917Z,21.40
2019-03-24T21:22:13.333Z,18.13
2019-03-24T21:24:40.726Z,23.23
2019-03-24T21:27:08.253Z,20.13
2019-03-24T21:29:35.651Z,20.80
2019-03-24T21:32:03.057Z,20.83
2019-03-24T21:34:30.490Z,18.47
2019-03-24T21:36:57.944Z,18.80
2019-03-24T21:39:25.411Z,18.30
2019-03-24T21:41:52.971Z,18.80
2019-03-24T21:44:20.381Z,18.77
2019-03-24T21:46:47.874Z,19.53
2019-03-24T21:49:15.285Z,21.37
2019-03-24T21:51:42.683Z,21.67
2019-03-24T21:54:10.176Z,24.10
2019-03-24T21:56:37.607Z,19.40
2019-03-24T21:59:05.101Z,23.37
2019-03-24T22:01:32.564Z,23.83
2019-03-24T22:04:00.018Z,24.70
2019-03-24T22:06:27.446Z,25.93
2019-03-24T22:08:54.876Z,23.23
2019-03-24T22:11:22.270Z,27.30
2019-03-24T22:13:49.741Z,27.40
2019-03-24T22:16:17.208Z,24.20
2019-03-24T22:18:44.614Z,28.53
2019-03-24T22:21:12.007Z,28.40
2019-03-24T22:23:39.418Z,28.10
2019-03-24T22:26:06.873Z,27.90
2019-03-24T22:28:34.289Z,28.87
2019-03-24T22:31:01.690Z,28.03
2019-03-24T22:33:29.096Z,26.80
2019-03-24T22:35:56.493Z,31.20
2019-03-24T22:38:23.910Z,32.20
2019-03-24T22:40:51.309Z,30.70
2019-03-24T22:43:18.814Z,28.67
2019-03-24T22:45:46.209Z,30.23
2019-03-24T22:48:13.626Z,29.57
2019-03-24T22:50:41.026Z,30.17
2019-03-24T22:53:08.447Z,29.40
2019-03-24T22:55:35.836Z,27.40
2019-03-24T22:58:03.254Z,26.90
2019-03-24T23:00:32.737Z,26.13
2019-03-24T23:03:00.324Z,25.43
2019-03-24T23:05:27.841Z,24.67
2019-03-24T23:07:55.234Z,23.23
2019-03-24T23:10:22.650Z,22.87
2019-03-24T23:12:50.038Z,23.23
2019-03-24T23:15:17.477Z,23.93
2019-03-24T23:17:44.873Z,22.97
2019-03-24T23:20:12.298Z,24.33
2019-03-24T23:22:39.685Z,24.67
2019-03-24T23:25:07.302Z,22.90
2019-03-24T23:27:34.656Z,25.20
2019-03-24T23:30:02.106Z,22.27
2019-03-24T23:32:29.475Z,19.80
2019-03-24T23:34:56.895Z,20.60
2019-03-24T23:37:24.281Z,23.10
2019-03-24T23:39:51.756Z,20.57
2019-03-24T23:42:19.141Z,18.60
2019-03-24T23:44:46.564Z,20.00
2019-03-24T23:47:13.943Z,17.60
2019-03-24T23:49:41.357Z,17.40
2019-03-24T23:52:08.766Z,15.80
2019-03-24T23:54:36.179Z,18.47
2019-03-24T23:57:03.568Z,15.80
2019-03-24T23:59:30.980Z,17.40
